createdAt,value
2022-08-16T00:01:26.436Z,11.40
2022-08-16T00:05:35.612Z,11.27
2022-08-16T00:09:57.614Z,15.20
2022-08-16T00:14:11.825Z,11.27
2022-08-16T00:18:29.791Z,10.20
2022-08-16T00:22:40.055Z,14.30
2022-08-16T00:26:51.588Z,10.63
2022-08-16T00:31:01.873Z,11.23
2022-08-16T00:35:15.988Z,10.73
2022-08-16T00:39:25.382Z,10.97
2022-08-16T00:43:42.711Z,11.87
2022-08-16T00:47:55.947Z,10.83
2022-08-16T00:52:05.207Z,10.87
2022-08-16T00:56:56.187Z,13.23
2022-08-16T01:01:08.012Z,11.57
2022-08-16T01:05:19.251Z,9.70
2022-08-16T01:09:34.519Z,9.93
2022-08-16T01:13:47.120Z,15.40
2022-08-16T01:17:56.404Z,13.07
2022-08-16T01:22:49.607Z,11.17
2022-08-16T01:26:49.409Z,10.83
2022-08-16T01:31:00.368Z,12.23
2022-08-16T01:35:17.021Z,13.03
2022-08-16T01:39:26.497Z,13.47
2022-08-16T01:43:38.144Z,12.57
2022-08-16T01:47:49.096Z,13.33
2022-08-16T01:52:01.007Z,12.40
2022-08-16T01:56:24.748Z,17.40
2022-08-16T02:00:35.724Z,16.30
2022-08-16T02:04:49.079Z,12.87
2022-08-16T02:09:05.459Z,13.47
2022-08-16T02:13:14.783Z,15.77
2022-08-16T02:17:25.115Z,14.77
2022-08-16T02:21:37.266Z,16.37
2022-08-16T02:26:06.453Z,17.80
2022-08-16T02:30:37.929Z,14.87
2022-08-16T02:34:50.310Z,20.03
2022-08-16T02:38:59.201Z,13.17
2022-08-16T02:43:08.764Z,13.70
2022-08-16T02:47:25.557Z,13.27
2022-08-16T02:51:36.520Z,13.63
2022-08-16T02:55:45.365Z,18.00
2022-08-16T03:00:03.787Z,11.83
2022-08-16T03:04:52.054Z,14.20
2022-08-16T03:08:59.952Z,8.33
2022-08-16T03:13:12.592Z,14.50
2022-08-16T03:17:21.928Z,11.00
2022-08-16T03:21:38.134Z,11.20
2022-08-16T03:25:48.880Z,10.43
2022-08-16T03:29:57.680Z,13.50
2022-08-16T03:34:06.339Z,11.83
2022-08-16T03:38:32.989Z,11.63
2022-08-16T03:43:00.555Z,11.07
2022-08-16T03:47:18.521Z,8.77
2022-08-16T03:51:28.309Z,10.33
2022-08-16T03:55:45.771Z,15.20
2022-08-16T03:59:56.371Z,13.70
2022-08-16T04:04:05.496Z,14.20
2022-08-16T04:08:22.821Z,9.40
2022-08-16T04:12:52.330Z,10.80
2022-08-16T04:17:03.376Z,12.07
2022-08-16T04:21:12.644Z,11.87
2022-08-16T04:25:38.791Z,12.03
2022-08-16T04:29:49.317Z,16.80
2022-08-16T04:34:02.687Z,14.03
2022-08-16T04:38:20.839Z,10.07
2022-08-16T04:42:30.529Z,7.70
2022-08-16T04:47:00.614Z,9.97
2022-08-16T04:51:13.708Z,7.23
2022-08-16T04:55:31.981Z,6.43
2022-08-16T04:59:47.205Z,10.00
2022-08-16T05:04:00.000Z,6.63
2022-08-16T05:08:28.285Z,9.13
2022-08-16T05:12:39.401Z,11.03
2022-08-16T05:16:53.608Z,10.20
2022-08-16T05:21:09.576Z,7.03
2022-08-16T05:25:22.648Z,6.63
2022-08-16T05:29:56.848Z,9.77
2022-08-16T05:34:03.342Z,6.07
2022-08-16T05:38:32.600Z,6.10
2022-08-16T05:48:13.840Z,7.53
2022-08-16T05:52:27.889Z,5.97
2022-08-16T05:56:37.663Z,5.63
2022-08-16T06:00:46.538Z,8.10
2022-08-16T06:04:58.276Z,5.60
2022-08-16T06:09:07.427Z,5.67
2022-08-16T06:13:17.734Z,4.53
2022-08-16T06:17:43.098Z,5.40
2022-08-16T06:21:55.092Z,4.43
2022-08-16T06:26:07.764Z,4.30
2022-08-16T06:30:19.752Z,5.87
2022-08-16T06:34:55.134Z,4.17
2022-08-16T07:38:19.568Z,5.30
2022-08-16T07:42:35.129Z,6.27
2022-08-16T07:46:44.266Z,3.97
